Airfield :
LOGIN :

Register | Disclaimer

   EN    FR    IT 

 










Legend :    VFR   Marginal VFR   IFR   Intensive IFR   Very Intensive IFR
Visi :
Ceiling :
>= 8 km
>= 3000ft
5 to 8 km
1000 to 3000 ft
1500m to 5 km
500 to 1000 ft
800 to 1500m
200 to 500 ft
< 800m
< 200 ft
Symbols :   Thunderstorms  Fog  Heavy snow  Heavy precipitations  Wind > 20 kt
SIGMETs :     Misc.  Thunderstorms  Icing  Turbulence  Mountain Waves  Volcanic Ashes






- Airport Elevation : 13 ft
- IATA code : SNR


LFRZ - St-Nazaire

CURRENT METAR :
  • 102230Z AUTO 21014KT 5000 BR OVC005/// ///TCU 11/11 Q1014 TEMPO RA BKN008 BECMG 28005KT

EXPIRED METARs :
  • 102200Z AUTO 20018KT 5000 -RA BR BKN007 OVC012 11/11 Q1014 TEMPO RA BECMG 28005KT
  • 102130Z AUTO 20016KT 6000 -DZ OVC012 11/11 Q1015 TEMPO 3000 RA BKN008 BECMG 28005KT
  • 102100Z AUTO 20019KT 9000 OVC013 12/11 Q1015 TEMPO 20020G30KT 4500 -RA BKN008
  • 102030Z AUTO 20017KT 8000 OVC017 12/10 Q1016 TEMPO 20020G30KT 4500 -RA BKN008
  • 102000Z AUTO 20017KT 7000 OVC017 11/10 Q1016 TEMPO 20020G30KT 4500 -RA BKN008

TAF AMD TAF LFRZ
Valid from the 10 at 19:00 until the 11 at 18:00 UTC


101942Z 1019/1118 20017KT 9999 BKN039
TEMPO 1019/1023 20020G30KT 4500 -RA BKN008
TEMPO 1023/1102 3000 RA BKN008
BECMG 1023/1101 28005KT
TEMPO 1104/1118 4500 SHRA BKN020TCU
TEMPO 1112/1116 28020G40KT 2500 TSRAGR BKN008 BKN015CB



MET'MAP, your aeronautical weather chart ! - Copyright ORBIFLY December 2007 - Disclaimer

ORBIFLY MET'MAP TEAM :

Programming & Development : Alexandra Zaïnal
Concept & original design : Baudouin d'Aumeries
Assistance for programming : Marc-Olivier Méhu
Technical & hardware support : Manuel Goepfert

Contact : metmap@orbifly.com




SOURCES & CREDITS :

   NOAA